createdAt,value
2019-03-30T03:07:20.223Z,20.4
2019-03-30T03:08:10.354Z,20.4
2019-03-30T03:09:00.589Z,20.4
2019-03-30T03:09:50.374Z,20.4
2019-03-30T03:10:40.728Z,20.4
2019-03-30T03:11:30.506Z,20.4
2019-03-30T03:12:20.532Z,20.4
2019-03-30T03:13:10.894Z,20.4
2019-03-30T03:14:00.970Z,20.4
2019-03-30T03:14:50.703Z,20.4
2019-03-30T03:15:40.657Z,20.4
2019-03-30T03:16:33.045Z,20.4
2019-03-30T03:17:21.240Z,20.4
2019-03-30T03:18:11.463Z,20.4
2019-03-30T03:19:01.309Z,20.4
2019-03-30T03:19:50.529Z,20.4
2019-03-30T03:20:40.948Z,20.4
2019-03-30T03:21:30.931Z,20.4
2019-03-30T03:22:21.261Z,20.4
2019-03-30T03:23:11.327Z,20.4
2019-03-30T03:24:01.446Z,20.4
2019-03-30T03:24:51.194Z,20.4
2019-03-30T03:25:41.313Z,20.5
2019-03-30T03:26:31.171Z,20.4
2019-03-30T03:27:21.406Z,20.4
2019-03-30T03:28:11.954Z,20.4
2019-03-30T03:29:01.724Z,20.4
2019-03-30T03:29:52.168Z,20.5
2019-03-30T03:30:42.213Z,20.5
2019-03-30T03:31:32.331Z,20.5
2019-03-30T03:32:21.836Z,20.4
2019-03-30T03:33:12.763Z,20.4
2019-03-30T03:34:03.117Z,20.4
2019-03-30T03:34:52.818Z,20.5
2019-03-30T03:35:42.474Z,20.5
2019-03-30T03:36:31.996Z,20.5
2019-03-30T03:37:22.041Z,20.4
2019-03-30T03:38:12.430Z,20.5
2019-03-30T03:39:02.519Z,20.4
2019-03-30T03:39:52.283Z,20.5
2019-03-30T03:40:42.909Z,20.5
2019-03-30T03:41:33.035Z,20.5
2019-03-30T03:42:22.826Z,20.5
2019-03-30T03:43:12.498Z,20.5
2019-03-30T03:44:02.533Z,20.5
2019-03-30T03:44:52.349Z,20.5
2019-03-30T03:45:43.342Z,20.5
2019-03-30T03:46:32.401Z,20.5
2019-03-30T03:47:22.749Z,20.5
2019-03-30T03:48:13.360Z,20.5
2019-03-30T03:49:02.387Z,20.5
2019-03-30T03:49:53.523Z,20.5
2019-03-30T03:50:43.437Z,20.5
2019-03-30T03:51:33.633Z,20.5
2019-03-30T03:52:23.140Z,20.5
2019-03-30T03:53:13.172Z,20.5
2019-03-30T03:54:03.589Z,20.5
2019-03-30T03:54:53.904Z,20.5
2019-03-30T03:55:43.368Z,20.5
2019-03-30T03:56:34.082Z,20.5
2019-03-30T03:57:24.155Z,20.5
2019-03-30T03:58:14.134Z,20.5
2019-03-30T03:59:03.945Z,20.5
2019-03-30T03:59:53.751Z,20.5
2019-03-30T04:00:43.737Z,20.5
2019-03-30T04:01:34.341Z,20.5
2019-03-30T04:02:23.631Z,20.5
2019-03-30T04:03:14.503Z,20.5
2019-03-30T04:04:04.046Z,20.5
2019-03-30T04:04:54.337Z,20.6
2019-03-30T04:05:44.747Z,20.6
2019-03-30T04:06:34.697Z,20.5
2019-03-30T04:07:24.654Z,20.6
2019-03-30T04:08:14.631Z,20.5
2019-03-30T04:09:04.660Z,20.6
2019-03-30T04:09:54.238Z,20.5
2019-03-30T04:10:44.726Z,20.6
2019-03-30T04:11:34.651Z,20.5
2019-03-30T04:12:24.964Z,20.6
2019-03-30T04:13:14.902Z,20.6
2019-03-30T04:14:05.315Z,20.6
2019-03-30T04:14:54.786Z,20.5
2019-03-30T04:15:45.358Z,20.6
2019-03-30T04:16:35.134Z,20.5
2019-03-30T04:17:24.945Z,20.6
2019-03-30T04:18:15.148Z,20.6
2019-03-30T04:19:05.690Z,20.6
2019-03-30T04:19:55.816Z,20.6
2019-03-30T04:20:45.506Z,20.6
2019-03-30T04:21:49.216Z,20.6
2019-03-30T04:22:25.376Z,20.6
2019-03-30T04:23:14.839Z,20.6
2019-03-30T04:24:06.065Z,20.6
2019-03-30T04:24:55.618Z,20.6
2019-03-30T04:25:45.428Z,20.6
2019-03-30T04:26:35.203Z,20.6
2019-03-30T04:27:26.284Z,20.6
2019-03-30T04:28:16.414Z,20.6
2019-03-30T04:29:06.331Z,20.6
2019-03-30T04:29:56.438Z,20.6
2019-03-30T04:30:45.638Z,20.6
2019-03-30T04:31:36.555Z,20.6
2019-03-30T04:32:26.710Z,20.6
2019-03-30T04:33:16.532Z,20.6
2019-03-30T04:34:06.373Z,20.6
2019-03-30T04:34:56.290Z,20.6
2019-03-30T04:35:46.288Z,20.6
2019-03-30T04:36:36.281Z,20.6
2019-03-30T04:37:26.055Z,20.6
2019-03-30T04:38:19.640Z,20.6
2019-03-30T04:39:06.789Z,20.6
2019-03-30T04:39:56.499Z,20.6
2019-03-30T04:40:46.897Z,20.6
2019-03-30T04:41:36.881Z,20.6
2019-03-30T04:42:26.936Z,20.6
2019-03-30T04:43:17.344Z,20.6
2019-03-30T04:44:06.820Z,20.6
2019-03-30T04:44:57.437Z,20.6
2019-03-30T04:45:47.624Z,20.6
2019-03-30T04:46:37.301Z,20.6
2019-03-30T04:47:27.399Z,20.6
2019-03-30T04:48:17.671Z,20.6
2019-03-30T04:49:07.477Z,20.6
2019-03-30T04:49:57.248Z,20.6
2019-03-30T04:50:47.303Z,20.6
2019-03-30T04:51:37.609Z,20.6
2019-03-30T04:52:27.918Z,20.6
2019-03-30T04:53:17.713Z,20.6
2019-03-30T04:54:07.776Z,20.6
2019-03-30T04:54:58.119Z,20.6
2019-03-30T04:55:47.921Z,20.6
2019-03-30T04:56:38.317Z,20.6
2019-03-30T04:57:28.295Z,20.6
2019-03-30T04:58:18.136Z,20.6
2019-03-30T04:59:07.883Z,20.6
2019-03-30T04:59:58.501Z,20.6
2019-03-30T05:00:48.283Z,20.6
2019-03-30T05:01:38.672Z,20.6
2019-03-30T05:02:28.378Z,20.6
2019-03-30T05:03:18.443Z,20.6
2019-03-30T05:04:08.507Z,20.6
2019-03-30T05:04:58.851Z,20.6
2019-03-30T05:05:48.644Z,20.6
2019-03-30T05:06:38.973Z,20.6
2019-03-30T05:07:28.725Z,20.6
2019-03-30T05:08:18.803Z,20.6
2019-03-30T05:09:09.153Z,20.6
2019-03-30T05:09:59.185Z,20.6
2019-03-30T05:10:48.495Z,20.6
2019-03-30T05:11:39.307Z,20.6
2019-03-30T05:12:29.390Z,20.6
2019-03-30T05:13:19.177Z,20.6
2019-03-30T05:14:09.558Z,20.6
2019-03-30T05:14:59.531Z,20.6
2019-03-30T05:15:48.780Z,20.6
2019-03-30T05:16:39.742Z,20.6
2019-03-30T05:17:49.190Z,20.6
2019-03-30T05:18:18.968Z,20.6
2019-03-30T05:19:09.267Z,20.6
2019-03-30T05:19:59.900Z,20.6
2019-03-30T05:20:49.962Z,20.6
2019-03-30T05:21:39.740Z,20.6
2019-03-30T05:22:29.797Z,20.6
2019-03-30T05:23:19.674Z,20.6
2019-03-30T05:24:09.957Z,20.6
2019-03-30T05:25:00.374Z,20.5
2019-03-30T05:25:49.792Z,20.5
2019-03-30T05:26:40.382Z,20.6
2019-03-30T05:27:30.491Z,20.6
2019-03-30T05:28:20.359Z,20.6
2019-03-30T05:29:10.341Z,20.6
2019-03-30T05:30:00.917Z,20.6
2019-03-30T05:30:50.447Z,20.6
2019-03-30T05:31:40.247Z,20.6
2019-03-30T05:32:30.779Z,20.6
2019-03-30T05:33:20.846Z,20.6
2019-03-30T05:34:10.649Z,20.6
2019-03-30T05:35:01.335Z,20.6
2019-03-30T05:35:51.035Z,20.6
2019-03-30T05:36:40.338Z,20.5
2019-03-30T05:37:31.206Z,20.6
2019-03-30T05:38:21.218Z,20.6
2019-03-30T05:39:11.001Z,20.6
2019-03-30T05:40:01.334Z,20.6
2019-03-30T05:40:51.193Z,20.6
2019-03-30T05:41:41.223Z,20.6
2019-03-30T05:42:31.508Z,20.6
2019-03-30T05:43:21.346Z,20.6
2019-03-30T05:44:11.117Z,20.6
2019-03-30T05:45:02.842Z,20.6
2019-03-30T05:45:51.216Z,20.6
2019-03-30T05:46:41.243Z,20.6
2019-03-30T05:47:31.587Z,20.6
2019-03-30T05:48:21.995Z,20.6
2019-03-30T05:49:11.448Z,20.6
2019-03-30T05:50:02.276Z,20.6
2019-03-30T05:50:51.825Z,20.6
2019-03-30T05:51:41.626Z,20.6
2019-03-30T05:52:31.908Z,20.6
2019-03-30T05:53:21.798Z,20.5
2019-03-30T05:54:12.335Z,20.5
2019-03-30T05:55:02.438Z,20.5
2019-03-30T05:55:52.207Z,20.5
2019-03-30T05:56:42.242Z,20.5
2019-03-30T05:57:31.835Z,20.5
2019-03-30T05:58:22.462Z,20.5
2019-03-30T05:59:12.450Z,20.5
2019-03-30T06:00:02.432Z,20.5
2019-03-30T06:00:52.637Z,20.5
2019-03-30T06:01:41.863Z,20.5
2019-03-30T06:02:32.672Z,20.5
2019-03-30T06:03:22.517Z,20.5
2019-03-30T06:05:20.285Z,20.5
2019-03-30T06:06:10.067Z,20.5
2019-03-30T06:07:00.177Z,20.5
2019-03-30T06:07:50.274Z,20.5
2019-03-30T06:08:40.582Z,20.5
2019-03-30T06:09:29.769Z,20.5
2019-03-30T06:10:20.639Z,20.5
2019-03-30T06:11:09.858Z,20.5
2019-03-30T06:12:00.761Z,20.5
2019-03-30T06:12:50.290Z,20.5
2019-03-30T06:13:40.894Z,20.5
2019-03-30T06:14:30.739Z,20.5
2019-03-30T06:15:20.516Z,20.5
2019-03-30T06:16:11.059Z,20.5
2019-03-30T06:17:00.857Z,20.5
2019-03-30T06:17:50.894Z,20.5
2019-03-30T06:18:40.968Z,20.6
2019-03-30T06:19:31.095Z,21.5
2019-03-30T06:20:20.524Z,26.7
2019-03-30T06:21:11.129Z,25.6
2019-03-30T06:22:01.239Z,28.8
2019-03-30T06:22:50.981Z,30.8
2019-03-30T06:23:41.409Z,31.3
2019-03-30T06:24:30.814Z,29.9
2019-03-30T06:25:21.641Z,27.9
2019-03-30T06:26:11.892Z,26.4
2019-03-30T06:27:01.563Z,25.7
2019-03-30T06:27:51.598Z,25.3
2019-03-30T06:28:41.673Z,25
2019-03-30T06:29:31.173Z,24.8
2019-03-30T06:30:21.835Z,24.6
2019-03-30T06:31:11.853Z,24.4
2019-03-30T06:32:01.961Z,24.3
2019-03-30T06:32:52.240Z,24.2
2019-03-30T06:33:42.315Z,24.1
2019-03-30T06:34:32.423Z,24
2019-03-30T06:35:22.523Z,23.9
2019-03-30T06:36:12.503Z,23.8
2019-03-30T06:37:02.286Z,23.8
2019-03-30T06:37:52.340Z,23.7
2019-03-30T06:38:42.658Z,23.5
2019-03-30T06:39:32.437Z,28.1
2019-03-30T06:40:22.773Z,28.4
2019-03-30T06:41:12.897Z,30.8
2019-03-30T06:42:02.625Z,32.9
2019-03-30T06:42:52.715Z,33.6
2019-03-30T06:43:42.834Z,33.5
2019-03-30T06:44:31.695Z,33.1
2019-03-30T06:45:22.935Z,32.7
2019-03-30T06:46:12.910Z,32.6
2019-03-30T06:47:03.267Z,32.7
2019-03-30T06:47:53.350Z,32.9
2019-03-30T06:48:43.400Z,33.4
2019-03-30T06:49:33.452Z,33.8
2019-03-30T06:50:23.484Z,34.1
2019-03-30T06:51:13.547Z,34.3
2019-03-30T06:52:03.337Z,34.4
2019-03-30T06:53:03.845Z,34.4
2019-03-30T06:53:43.738Z,34.6
2019-03-30T06:54:33.808Z,34.7
2019-03-30T06:55:23.594Z,34.9
2019-03-30T06:56:13.979Z,35.2
2019-03-30T06:57:03.984Z,35.4
2019-03-30T06:57:54.033Z,35.6
2019-03-30T06:58:43.846Z,35.8
2019-03-30T06:59:34.171Z,35.9
2019-03-30T07:00:24.260Z,36.1
2019-03-30T07:01:13.516Z,36.3
2019-03-30T07:02:04.424Z,36.6
2019-03-30T07:02:54.422Z,36.8
2019-03-30T07:05:20.004Z,37.3
2019-03-30T07:06:10.084Z,37.4
2019-03-30T07:07:00.356Z,37.6
2019-03-30T07:07:50.438Z,37.8
2019-03-30T07:08:40.031Z,38
2019-03-30T07:09:30.533Z,38.2
2019-03-30T07:10:20.619Z,38.4
2019-03-30T07:11:25.961Z,38.6
2019-03-30T07:12:00.821Z,38.8
2019-03-30T07:12:50.486Z,39
2019-03-30T07:13:40.651Z,39.1
2019-03-30T07:14:30.889Z,39.3
2019-03-30T07:15:20.691Z,39.4
2019-03-30T07:16:11.016Z,39.6
2019-03-30T07:17:04.656Z,39.8
2019-03-30T07:17:51.126Z,40
2019-03-30T07:18:40.908Z,40.2
2019-03-30T07:19:30.692Z,40.3
2019-03-30T07:20:21.293Z,40.3
2019-03-30T07:21:11.358Z,40.3
2019-03-30T07:22:01.165Z,40.4
2019-03-30T07:22:54.433Z,40.7
2019-03-30T07:23:41.008Z,41
2019-03-30T07:24:31.587Z,41.2
2019-03-30T07:25:21.088Z,41.4
2019-03-30T07:26:11.720Z,41.5
2019-03-30T07:27:01.501Z,41.6
2019-03-30T07:27:51.836Z,41.7
2019-03-30T07:28:40.595Z,41.9
2019-03-30T07:29:31.955Z,42.1
2019-03-30T07:30:21.753Z,42.2
2019-03-30T07:31:11.780Z,42.3
2019-03-30T07:32:02.377Z,42.3
2019-03-30T07:32:52.437Z,42.1
2019-03-30T07:33:42.242Z,42
2019-03-30T07:34:32.327Z,42.1
2019-03-30T07:35:22.132Z,42.3
2019-03-30T07:36:12.150Z,42.6
2019-03-30T07:37:01.945Z,42.7
2019-03-30T07:37:52.260Z,42.6
2019-03-30T07:38:42.610Z,42.3
2019-03-30T07:39:32.719Z,41.9
2019-03-30T07:40:22.464Z,41.7
2019-03-30T07:41:12.022Z,41.6
2019-03-30T07:42:02.626Z,41.6
2019-03-30T07:42:52.436Z,41.6
2019-03-30T07:43:42.991Z,41.6
2019-03-30T07:44:31.940Z,41.5
2019-03-30T07:45:23.098Z,41.4
2019-03-30T07:46:12.890Z,41.4
2019-03-30T07:47:03.243Z,41.3
2019-03-30T07:47:52.724Z,41.5
2019-03-30T07:48:43.079Z,41.8
2019-03-30T07:49:33.396Z,41.9
2019-03-30T07:50:23.181Z,41.9
2019-03-30T07:51:13.491Z,41.8
2019-03-30T07:52:03.420Z,41.6
2019-03-30T07:52:53.658Z,41.4
2019-03-30T07:53:50.054Z,41.3
2019-03-30T07:54:33.499Z,41.6
2019-03-30T07:55:23.548Z,41.8
2019-03-30T07:56:14.394Z,41.9
2019-03-30T07:57:21.951Z,41.8
2019-03-30T07:57:54.491Z,41.6
2019-03-30T07:58:43.786Z,41.5
2019-03-30T07:59:34.173Z,41.3
2019-03-30T08:00:31.217Z,41.3
2019-03-30T08:01:13.718Z,41.4
2019-03-30T08:02:04.043Z,41.5
2019-03-30T08:03:09.018Z,41.6
2019-03-30T08:03:44.453Z,41.5
2019-03-30T08:04:34.578Z,41.4
2019-03-30T08:05:24.316Z,41.3
2019-03-30T08:06:14.659Z,41.2
2019-03-30T08:07:04.660Z,41.1
2019-03-30T08:07:54.208Z,41.2
2019-03-30T08:08:44.777Z,41.2
2019-03-30T08:09:38.101Z,41.2
2019-03-30T08:10:24.880Z,41.2
2019-03-30T08:11:17.961Z,41.1
2019-03-30T08:12:04.765Z,41
2019-03-30T08:12:54.840Z,40.9
2019-03-30T08:13:44.898Z,41
2019-03-30T08:14:34.360Z,41
2019-03-30T08:15:25.019Z,41.1
2019-03-30T08:16:14.767Z,41.4
2019-03-30T08:17:05.376Z,42.1
2019-03-30T08:17:55.494Z,42.6
2019-03-30T08:18:45.503Z,43.1
2019-03-30T08:19:35.092Z,43.5
2019-03-30T08:20:25.887Z,43.8
2019-03-30T08:21:15.399Z,44.1
2019-03-30T08:22:04.918Z,44.4
2019-03-30T08:22:55.823Z,44.6
2019-03-30T08:23:46.292Z,44.8
2019-03-30T08:24:35.663Z,44.9
2019-03-30T08:25:25.721Z,45.1
2019-03-30T08:26:16.029Z,45.3
2019-03-30T08:27:06.224Z,45.6
2019-03-30T08:27:56.159Z,45.9
2019-03-30T08:28:46.278Z,46.1
2019-03-30T08:29:36.299Z,46.3
2019-03-30T08:30:25.828Z,46.4
2019-03-30T08:31:16.419Z,46.6
2019-03-30T08:32:06.184Z,46.8
2019-03-30T08:32:56.064Z,47
2019-03-30T08:33:46.664Z,47.2
2019-03-30T08:34:36.649Z,47.4
2019-03-30T08:35:26.751Z,47.6
2019-03-30T08:36:16.770Z,47.8
2019-03-30T08:37:06.573Z,47.9
2019-03-30T08:37:56.591Z,48.1
2019-03-30T08:38:47.002Z,48.3
2019-03-30T08:39:36.451Z,48.6
2019-03-30T08:40:26.868Z,48.8
2019-03-30T08:41:17.491Z,48.9
2019-03-30T08:42:07.178Z,49.1
2019-03-30T08:42:57.294Z,49.2
2019-03-30T08:43:47.288Z,49.3
2019-03-30T08:44:36.861Z,49.4
2019-03-30T08:45:27.214Z,49.3
2019-03-30T08:46:17.296Z,49
2019-03-30T08:47:07.253Z,49
2019-03-30T08:47:57.316Z,49.3
2019-03-30T08:48:46.821Z,49.6
2019-03-30T08:49:37.418Z,50.1
2019-03-30T08:50:27.223Z,50.4
2019-03-30T08:51:21.284Z,50.6
2019-03-30T08:52:07.604Z,50.8
2019-03-30T08:52:57.711Z,50.9
2019-03-30T08:54:00.033Z,51
2019-03-30T08:54:38.072Z,51.2
2019-03-30T08:55:28.125Z,51.4
2019-03-30T08:56:17.928Z,51.6
2019-03-30T08:57:07.720Z,51.8
2019-03-30T08:58:47.658Z,52.1
2019-03-30T08:59:38.422Z,52.3
2019-03-30T09:00:27.907Z,52.4
2019-03-30T09:01:32.387Z,52.6
2019-03-30T09:02:08.070Z,52.8
2019-03-30T09:02:58.774Z,52.9
2019-03-30T09:03:48.491Z,53.1
2019-03-30T09:04:38.501Z,53.3
2019-03-30T09:05:28.567Z,53.4
2019-03-30T09:06:18.913Z,53.6
2019-03-30T09:07:08.717Z,53.8
2019-03-30T09:07:58.492Z,53.9
2019-03-30T09:08:49.075Z,54
2019-03-30T09:09:38.601Z,53.9
2019-03-30T09:10:28.189Z,52.6
2019-03-30T09:11:18.982Z,50.6
2019-03-30T09:12:08.904Z,48.6
2019-03-30T09:12:58.902Z,46.8
2019-03-30T09:13:48.993Z,46.2
2019-03-30T09:14:39.498Z,45.5
2019-03-30T09:15:29.645Z,44.1
2019-03-30T09:16:19.334Z,42.6
2019-03-30T09:17:09.419Z,41.8
2019-03-30T09:17:59.757Z,41.8
2019-03-30T09:18:49.533Z,41.9
2019-03-30T09:19:39.123Z,42.2
2019-03-30T09:20:29.489Z,42.4
2019-03-30T09:21:19.064Z,42.7
2019-03-30T09:22:09.660Z,42.9
2019-03-30T09:23:00.177Z,43
2019-03-30T09:23:49.674Z,43.2
2019-03-30T09:24:39.464Z,43.6
2019-03-30T09:25:30.292Z,43.8
2019-03-30T09:26:21.644Z,44.1
2019-03-30T09:27:09.841Z,44.4
2019-03-30T09:27:59.983Z,44.8
2019-03-30T09:28:50.051Z,45.1
2019-03-30T09:29:40.139Z,45.4
2019-03-30T09:30:30.414Z,45.8
2019-03-30T09:31:20.304Z,46.1
2019-03-30T09:32:19.562Z,46.4
2019-03-30T09:33:00.488Z,46.8
2019-03-30T09:33:49.911Z,47
2019-03-30T09:34:40.443Z,47.3
2019-03-30T09:35:30.359Z,47.6
2019-03-30T09:36:20.575Z,47.9
2019-03-30T09:37:09.863Z,48.3
2019-03-30T09:38:00.463Z,48.6
2019-03-30T09:38:50.315Z,48.9
2019-03-30T09:39:40.436Z,49.3
2019-03-30T09:40:29.557Z,49.5
2019-03-30T09:41:20.455Z,49.8
2019-03-30T09:42:10.527Z,50.1
2019-03-30T09:42:59.807Z,50.3
2019-03-30T09:43:51.136Z,50.6
2019-03-30T09:44:41.157Z,50.8
2019-03-30T09:45:31.341Z,50.6
2019-03-30T09:46:21.293Z,50.8
2019-03-30T09:47:10.814Z,51
2019-03-30T09:48:01.422Z,51.3
2019-03-30T09:48:51.190Z,51.5
2019-03-30T09:49:40.998Z,51.8
2019-03-30T09:50:31.330Z,52.1
2019-03-30T09:51:21.655Z,52.3
2019-03-30T09:53:01.602Z,52.2
2019-03-30T09:53:51.287Z,52.2
2019-03-30T09:54:41.654Z,52.3
2019-03-30T09:55:32.492Z,51.8
2019-03-30T09:56:21.215Z,51.5
2019-03-30T09:57:12.200Z,51.6
2019-03-30T09:58:02.150Z,51.9
2019-03-30T09:58:51.452Z,52.1
2019-03-30T09:59:41.996Z,52.3
2019-03-30T10:00:32.415Z,52.5
2019-03-30T10:01:22.357Z,52.4
2019-03-30T10:02:12.444Z,52.3
2019-03-30T10:03:02.039Z,52.3
2019-03-30T10:03:52.376Z,52.6
2019-03-30T10:06:19.909Z,53.6
2019-03-30T10:07:09.511Z,53.6
2019-03-30T10:07:59.747Z,53.6
2019-03-30T10:08:49.792Z,53.6
2019-03-30T10:09:39.582Z,53.8
2019-03-30T10:10:29.371Z,54.1
2019-03-30T10:11:19.957Z,54.3
2019-03-30T10:12:09.181Z,54.4
2019-03-30T10:13:00.088Z,54.7
2019-03-30T10:13:50.162Z,55
2019-03-30T10:14:39.641Z,55.2
2019-03-30T10:15:29.989Z,55.4
2019-03-30T10:16:20.523Z,55.5
2019-03-30T10:17:10.584Z,55.5
2019-03-30T10:18:00.729Z,55.6
2019-03-30T10:18:50.501Z,55.7
2019-03-30T10:19:40.006Z,55.9
2019-03-30T10:20:31.089Z,56.2
2019-03-30T10:21:20.688Z,56.3
2019-03-30T10:22:10.535Z,56.4
2019-03-30T10:23:00.631Z,56.6
2019-03-30T10:23:50.860Z,56.7
2019-03-30T10:24:43.435Z,56.8
2019-03-30T10:25:31.179Z,56.9
2019-03-30T10:26:21.506Z,57.1
2019-03-30T10:27:11.201Z,57.2
2019-03-30T10:28:01.369Z,57.3
2019-03-30T10:28:51.798Z,57.5
2019-03-30T10:29:41.300Z,57.6
2019-03-30T10:30:31.559Z,57.7
2019-03-30T10:32:11.729Z,57.9
2019-03-30T10:33:01.570Z,58.1
2019-03-30T10:33:51.530Z,58.1
2019-03-30T10:34:44.857Z,58.2
2019-03-30T10:35:31.993Z,58.3
2019-03-30T10:36:21.964Z,58.4
2019-03-30T10:37:12.355Z,58.5
2019-03-30T10:38:01.900Z,58.5
2019-03-30T10:38:51.872Z,58.7
2019-03-30T10:39:41.644Z,58.8
2019-03-30T10:40:32.602Z,58.9
2019-03-30T10:41:22.605Z,58.9
2019-03-30T10:42:12.143Z,59
2019-03-30T10:43:02.745Z,59
2019-03-30T10:43:52.805Z,59
2019-03-30T10:44:42.328Z,59.1
2019-03-30T10:45:32.652Z,59.2
2019-03-30T10:46:22.387Z,59.3
2019-03-30T10:47:13.039Z,59.5
2019-03-30T10:48:02.792Z,59.6
2019-03-30T10:48:52.939Z,59.6
2019-03-30T10:49:42.934Z,59.7
2019-03-30T10:50:32.721Z,59.8
2019-03-30T10:51:23.727Z,59.9
2019-03-30T10:52:13.154Z,59.9
2019-03-30T10:53:03.507Z,60
2019-03-30T10:53:53.551Z,60.1
2019-03-30T10:54:58.163Z,60.1
2019-03-30T10:55:33.356Z,60.3
2019-03-30T10:56:23.708Z,60.3
2019-03-30T10:57:13.507Z,60.4
2019-03-30T10:58:05.771Z,60.4
2019-03-30T10:58:53.861Z,60.6
2019-03-30T10:59:43.913Z,60.6
2019-03-30T11:00:33.455Z,60.7
2019-03-30T11:01:23.751Z,60.8
2019-03-30T11:02:14.198Z,60.8
2019-03-30T11:03:04.150Z,60.9
2019-03-30T11:03:54.266Z,61
2019-03-30T11:04:43.531Z,61.1
2019-03-30T11:05:33.858Z,61.1
2019-03-30T11:06:24.193Z,61.2
2019-03-30T11:07:13.803Z,61.3
2019-03-30T11:08:04.543Z,61.4
2019-03-30T11:08:54.325Z,61.4
2019-03-30T11:09:44.077Z,61.6
2019-03-30T11:10:34.458Z,61.6
2019-03-30T11:11:24.825Z,61.6
2019-03-30T11:12:14.817Z,61.8
2019-03-30T11:13:04.665Z,61.9
2019-03-30T11:13:54.940Z,61.9
2019-03-30T11:14:45.116Z,62.1
2019-03-30T11:15:38.404Z,62.1
2019-03-30T11:16:24.847Z,62.1
2019-03-30T11:17:14.897Z,62.2
2019-03-30T11:18:04.969Z,62.3
2019-03-30T11:18:55.315Z,62.3
2019-03-30T11:19:45.087Z,62.3
2019-03-30T11:20:35.437Z,62.3
2019-03-30T11:21:25.477Z,62.4
2019-03-30T11:22:15.357Z,62.4
2019-03-30T11:23:05.740Z,62.5
2019-03-30T11:23:54.822Z,62.6
2019-03-30T11:24:45.457Z,62.6
2019-03-30T11:25:35.526Z,62.7
2019-03-30T11:26:25.851Z,62.8
2019-03-30T11:27:15.641Z,62.8
2019-03-30T11:28:05.962Z,62.8
2019-03-30T11:28:55.539Z,62.9
2019-03-30T11:29:44.869Z,62.9
2019-03-30T11:30:35.737Z,63
2019-03-30T11:31:26.318Z,63.1
2019-03-30T11:32:16.306Z,63.2
2019-03-30T11:33:05.582Z,63.3
2019-03-30T11:33:56.459Z,63.3
2019-03-30T11:34:45.961Z,63.3
2019-03-30T11:35:36.571Z,63.3
2019-03-30T11:36:26.565Z,63.4
2019-03-30T11:37:16.646Z,63.4
2019-03-30T11:38:06.731Z,63.5
2019-03-30T11:38:56.468Z,63.5
2019-03-30T11:39:46.880Z,63.6
2019-03-30T11:40:36.858Z,63.6
2019-03-30T11:41:30.229Z,63.6
2019-03-30T11:42:17.055Z,63.7
2019-03-30T11:43:07.073Z,63.8
2019-03-30T11:43:57.136Z,63.9
2019-03-30T11:44:47.416Z,63.9
2019-03-30T11:45:37.245Z,63.9
2019-03-30T11:46:27.040Z,63.9
2019-03-30T11:47:17.428Z,63.9
2019-03-30T11:48:06.923Z,64
2019-03-30T11:48:56.162Z,64.1
2019-03-30T11:49:47.381Z,64.1
2019-03-30T11:50:37.125Z,64.2
2019-03-30T11:51:27.705Z,64.2
2019-03-30T11:52:17.410Z,64.3
2019-03-30T11:53:07.780Z,64.3
2019-03-30T11:53:57.542Z,64.3
2019-03-30T11:54:47.915Z,64.3
2019-03-30T11:55:37.480Z,64.3
2019-03-30T11:56:27.548Z,64.4
2019-03-30T11:57:17.642Z,64.4
2019-03-30T11:58:07.668Z,64.4
2019-03-30T11:58:57.729Z,64.5
2019-03-30T11:59:47.497Z,64.6
2019-03-30T12:00:37.314Z,64.6
2019-03-30T12:01:27.981Z,64.6
2019-03-30T12:02:32.345Z,64.6
2019-03-30T12:03:08.017Z,64.6
2019-03-30T12:03:57.234Z,64.7
2019-03-30T12:06:19.405Z,64.8
2019-03-30T12:07:09.576Z,64.8
2019-03-30T12:07:59.664Z,64.9
2019-03-30T12:08:50.462Z,64.9
2019-03-30T12:10:09.131Z,64.9
2019-03-30T12:10:44.202Z,65
2019-03-30T12:11:20.148Z,65
2019-03-30T12:12:10.514Z,65
2019-03-30T12:13:50.758Z,65.1
2019-03-30T12:14:40.974Z,65.1
2019-03-30T12:15:31.101Z,65.1
2019-03-30T12:16:35.011Z,65.2
2019-03-30T12:17:11.003Z,65.1
2019-03-30T12:18:01.531Z,65.1
2019-03-30T12:19:06.503Z,65.2
2019-03-30T12:19:40.948Z,65.3
2019-03-30T12:20:31.016Z,65.3
2019-03-30T12:21:20.526Z,65.3
2019-03-30T12:22:10.554Z,65.3
2019-03-30T12:23:01.225Z,65.3
2019-03-30T12:23:50.720Z,65.3
2019-03-30T12:24:40.496Z,65.4
2019-03-30T12:25:41.200Z,65.4
2019-03-30T12:26:21.158Z,65.4
2019-03-30T12:27:11.228Z,65.4
2019-03-30T12:28:01.003Z,65.4
2019-03-30T12:28:51.366Z,65.4
2019-03-30T12:29:45.327Z,65.4
2019-03-30T12:30:31.665Z,65.5
2019-03-30T12:31:21.505Z,65.5
2019-03-30T12:32:11.853Z,65.5
2019-03-30T12:33:01.646Z,65.6
2019-03-30T12:33:51.735Z,65.6
2019-03-30T12:34:42.108Z,65.6
2019-03-30T12:35:31.348Z,65.6
2019-03-30T12:36:22.203Z,65.6
2019-03-30T12:37:12.193Z,65.6
2019-03-30T12:38:02.308Z,65.6
2019-03-30T12:38:52.341Z,65.6
2019-03-30T12:39:42.127Z,65.6
2019-03-30T12:40:32.180Z,65.6
2019-03-30T12:41:22.264Z,65.6
2019-03-30T12:42:12.653Z,65.6
2019-03-30T12:43:02.397Z,65.6
2019-03-30T12:43:52.232Z,65.6
2019-03-30T12:44:41.950Z,65.6
2019-03-30T12:45:32.057Z,65.6
2019-03-30T12:46:22.685Z,65.6
2019-03-30T12:47:15.473Z,65.6
2019-03-30T12:48:06.722Z,65.6
2019-03-30T12:49:07.579Z,65.6
2019-03-30T12:49:45.762Z,65.6
2019-03-30T12:50:33.204Z,65.7
2019-03-30T14:07:18.949Z,51.4
2019-03-30T14:08:09.485Z,51.1
2019-03-30T14:08:59.348Z,50.9
2019-03-30T14:09:49.624Z,50.7
2019-03-30T14:10:43.305Z,50.4
2019-03-30T14:11:29.450Z,50.3
2019-03-30T14:12:19.765Z,50.1
2019-03-30T14:13:09.559Z,49.9
2019-03-30T14:13:59.616Z,49.7
2019-03-30T14:14:49.420Z,49.6
2019-03-30T14:15:39.757Z,49.4
2019-03-30T14:16:29.595Z,49.3
2019-03-30T14:17:23.540Z,49.1
2019-03-30T14:18:09.740Z,49
2019-03-30T14:19:00.015Z,48.9
2019-03-30T14:19:49.615Z,48.8
2019-03-30T14:20:40.386Z,48.6
2019-03-30T14:21:30.442Z,48.5
2019-03-30T14:22:19.952Z,48.4
2019-03-30T14:23:10.368Z,48.3
2019-03-30T14:24:00.380Z,48.2
2019-03-30T14:24:50.417Z,48.1
2019-03-30T14:25:40.748Z,47.9
2019-03-30T14:26:36.431Z,47.9
2019-03-30T14:27:20.314Z,47.8
2019-03-30T14:28:10.682Z,47.6
2019-03-30T14:29:00.721Z,47.6
2019-03-30T14:29:54.259Z,47.4
2019-03-30T14:30:40.854Z,47.3
2019-03-30T14:31:31.181Z,47.3
2019-03-30T14:32:21.242Z,47.2
2019-03-30T14:33:11.028Z,47.1
2019-03-30T14:34:00.828Z,47
2019-03-30T14:34:51.436Z,46.9
2019-03-30T14:35:44.751Z,46.8
2019-03-30T14:36:31.001Z,46.7
2019-03-30T14:37:20.768Z,46.6
2019-03-30T14:38:11.382Z,46.5
2019-03-30T14:39:01.796Z,46.4
2019-03-30T14:39:51.228Z,46.4
2019-03-30T14:40:41.580Z,46.3
2019-03-30T14:41:31.648Z,46.2
2019-03-30T14:42:21.707Z,46.1
2019-03-30T14:43:11.488Z,46
2019-03-30T14:44:01.826Z,45.9
2019-03-30T14:44:51.871Z,45.9
2019-03-30T14:45:42.248Z,45.8
2019-03-30T14:46:32.330Z,45.7
2019-03-30T14:47:22.070Z,45.6
2019-03-30T14:48:12.415Z,45.6
2019-03-30T14:49:02.183Z,45.5
2019-03-30T14:49:52.554Z,45.4
2019-03-30T14:50:42.297Z,45.4
2019-03-30T14:51:32.370Z,45.3
2019-03-30T14:52:22.747Z,45.2
2019-03-30T14:53:13.612Z,45.1
2019-03-30T14:54:02.917Z,45.1
2019-03-30T14:54:58.085Z,45
2019-03-30T14:55:44.875Z,44.9
2019-03-30T14:56:48.309Z,44.9
2019-03-30T14:57:23.301Z,44.8
2019-03-30T14:58:13.630Z,44.8
2019-03-30T14:59:18.514Z,44.7
2019-03-30T14:59:53.739Z,44.6
2019-03-30T15:00:44.992Z,44.6
2019-03-30T15:01:34.299Z,44.5
2019-03-30T15:02:23.631Z,44.4
2019-03-30T15:03:14.081Z,44.4
2019-03-30T15:04:04.056Z,44.3
2019-03-30T15:04:53.842Z,44.3
2019-03-30T15:05:43.681Z,44.2
2019-03-30T15:06:34.309Z,44.1
2019-03-30T15:07:23.187Z,44.1
2019-03-30T15:08:13.799Z,44.1
2019-03-30T15:09:04.412Z,44
2019-03-30T15:09:54.543Z,43.9
2019-03-30T15:10:43.971Z,43.9
2019-03-30T15:11:37.807Z,43.9
2019-03-30T15:12:24.658Z,43.8
2019-03-30T15:13:14.329Z,43.7
2019-03-30T15:14:04.036Z,43.7
2019-03-30T15:14:54.356Z,43.6
2019-03-30T15:15:43.976Z,43.6
2019-03-30T15:16:34.260Z,43.6
2019-03-30T15:17:24.561Z,43.5
2019-03-30T15:18:14.331Z,43.4
2019-03-30T15:19:04.488Z,43.4
2019-03-30T15:19:54.486Z,43.3
2019-03-30T15:20:44.778Z,43.3
2019-03-30T15:21:34.573Z,43.3
2019-03-30T15:22:24.923Z,43.2
2019-03-30T15:23:14.876Z,43.1
2019-03-30T15:24:05.645Z,43.1
2019-03-30T15:24:55.012Z,43.1
2019-03-30T15:25:45.361Z,43.1
2019-03-30T15:26:35.735Z,43
2019-03-30T15:27:25.735Z,42.9
2019-03-30T15:28:15.415Z,42.9
2019-03-30T15:29:05.324Z,42.9
2019-03-30T15:29:55.938Z,42.8
2019-03-30T15:30:45.717Z,42.8
2019-03-30T15:31:35.773Z,42.8
2019-03-30T15:32:26.109Z,42.7
2019-03-30T15:33:15.945Z,42.6
2019-03-30T15:34:06.268Z,42.6
2019-03-30T15:34:59.890Z,42.6
2019-03-30T15:35:46.369Z,42.5
2019-03-30T15:36:35.932Z,42.5
2019-03-30T15:37:25.951Z,42.4
2019-03-30T15:38:16.278Z,42.4
2019-03-30T15:39:06.607Z,42.3
2019-03-30T15:39:56.657Z,42.3